Time;durP1;ratioP1;P1;durP2;ratioP2;P2;SDS_P1;SDS_P2;PMS_P1;PMS_P2;Temp;Humidity;BMP_temperature;BMP_pressure;BME280_temperature;BME280_humidity;BME280_pressure;Samples;Min_cycle;Max_cycle;Signal;HPM_P1;HPM_P2
2022/11/22 00:05:02;;;;;;;7.18;2.40;;;;;;;6.35;65.34;97762.59;10328206;28;20066;-83
2022/11/22 00:10:09;;;;;;;8.32;2.80;;;;;;;6.27;65.57;97756.31;10320442;28;20064;-83
2022/11/22 00:15:12;;;;;;;5.75;3.13;;;;;;;6.36;65.55;97747.84;10320134;28;20400;-83
2022/11/22 00:20:13;;;;;;;6.30;3.00;;;;;;;6.34;65.60;97747.97;10320054;28;20057;-83
2022/11/22 00:25:15;;;;;;;8.18;3.08;;;;;;;6.31;65.58;97744.75;10319301;28;20420;-83
2022/11/22 00:30:17;;;;;;;8.15;3.17;;;;;;;6.12;66.26;97729.75;10320013;28;20460;-83
2022/11/22 00:35:19;;;;;;;5.25;2.50;;;;;;;6.30;66.06;97738.78;10316723;28;20050;-83
2022/11/22 00:40:20;;;;;;;5.40;2.78;;;;;;;6.26;66.06;97721.78;10318744;28;20069;-82
2022/11/22 00:45:22;;;;;;;7.43;3.00;;;;;;;6.16;66.42;97719.97;10318194;28;20424;-82
2022/11/22 00:50:24;;;;;;;8.70;3.75;;;;;;;6.13;66.57;97709.81;10320417;28;20051;-82
2022/11/22 00:55:25;;;;;;;5.88;2.60;;;;;;;6.13;66.37;97708.06;10318597;28;20424;-82
2022/11/22 01:00:27;;;;;;;7.88;3.20;;;;;;;6.21;66.39;97723.03;10319767;28;20055;-82
2022/11/22 01:05:29;;;;;;;5.25;3.10;;;;;;;6.31;66.23;97730.03;10326624;28;20054;-82
2022/11/22 01:10:30;;;;;;;6.22;3.00;;;;;;;6.46;66.26;97722.81;10316679;28;20061;-82
2022/11/22 01:15:32;;;;;;;10.13;3.17;;;;;;;6.34;66.77;97732.41;10318149;28;20050;-82
2022/11/22 01:20:34;;;;;;;8.10;3.33;;;;;;;6.25;66.73;97738.28;10318084;28;20062;-81
2022/11/22 01:25:36;;;;;;;9.27;3.53;;;;;;;6.17;67.31;97755.34;10316658;28;20051;-82
2022/11/22 01:30:37;;;;;;;8.43;3.10;;;;;;;6.12;67.43;97744.50;10316321;28;20050;-82
2022/11/22 01:35:39;;;;;;;6.57;2.53;;;;;;;6.21;67.15;97723.84;10323346;28;20054;-82
2022/11/22 01:40:41;;;;;;;4.00;2.13;;;;;;;6.41;66.88;97744.91;10316669;28;20054;-81
2022/11/22 01:45:54;;;;;;;4.40;2.15;;;;;;;6.59;66.62;97759.06;10315544;28;20050;-82
2022/11/22 01:51:02;;;;;;;4.10;2.40;;;;;;;6.69;66.11;97752.19;10323121;28;20057;-82
2022/11/22 01:56:08;;;;;;;7.00;2.30;;;;;;;6.72;66.12;97763.16;10314065;28;20432;-82
2022/11/22 02:01:10;;;;;;;5.78;2.38;;;;;;;6.73;66.16;97777.81;10323632;28;20058;-82
2022/11/22 02:06:13;;;;;;;5.65;2.33;;;;;;;6.75;66.30;97769.91;10314430;28;20133;-82
2022/11/22 02:11:16;;;;;;;4.18;2.28;;;;;;;6.58;66.45;97773.81;10314307;28;20054;-82
2022/11/22 02:16:19;;;;;;;4.82;1.60;;;;;;;6.66;66.51;97781.00;10316090;28;20058;-82
2022/11/22 02:21:21;;;;;;;3.63;1.80;;;;;;;6.67;66.40;97785.25;10331829;28;20148;-82
2022/11/22 02:26:26;;;;;;;4.47;1.75;;;;;;;6.78;66.18;97767.03;10322288;28;20050;-81
2022/11/22 02:31:38;;;;;;;3.75;1.85;;;;;;;6.72;66.17;97794.31;10314416;28;20057;-82
2022/11/22 02:36:48;;;;;;;4.50;2.05;;;;;;;6.55;66.25;97789.59;10321007;28;20495;-81
2022/11/22 02:41:50;;;;;;;4.70;1.70;;;;;;;6.52;66.18;97779.47;10322278;28;20062;-82
2022/11/22 02:46:54;;;;;;;3.85;1.60;;;;;;;6.47;66.20;97780.78;10321590;28;20411;-82
2022/11/22 02:51:56;;;;;;;4.53;1.85;;;;;;;6.44;66.36;97788.78;10319894;28;20042;-82
2022/11/22 02:56:57;;;;;;;5.40;1.85;;;;;;;6.42;66.31;97796.69;10320325;28;20218;-81
2022/11/22 03:01:59;;;;;;;3.67;1.67;;;;;;;6.38;66.27;97791.84;10323857;28;20069;-82
2022/11/22 03:07:04;;;;;;;3.78;1.80;;;;;;;6.21;66.64;97804.31;10340615;28;20047;-82
2022/11/22 03:12:06;;;;;;;6.35;1.98;;;;;;;6.14;66.71;97808.31;10326990;28;20050;-82
2022/11/22 03:17:07;;;;;;;4.47;1.75;;;;;;;6.07;66.95;97801.09;10325236;28;20068;-82
2022/11/22 03:22:09;;;;;;;3.92;1.70;;;;;;;6.05;66.96;97801.22;10323086;28;20533;-81
2022/11/22 03:27:12;;;;;;;4.20;1.88;;;;;;;5.91;67.20;97824.78;10325735;28;20054;-82
2022/11/22 03:32:13;;;;;;;4.75;1.80;;;;;;;5.86;67.44;97839.84;10326812;28;20050;-82
2022/11/22 03:37:15;;;;;;;3.80;1.70;;;;;;;5.82;67.32;97842.81;10325804;28;20515;-82
2022/11/22 03:42:17;;;;;;;4.07;1.92;;;;;;;5.75;67.63;97845.00;10341232;28;20069;-82
2022/11/22 03:47:22;;;;;;;7.25;2.13;;;;;;;5.65;67.78;97848.38;10324811;28;20054;-82
2022/11/22 03:52:24;;;;;;;5.13;2.40;;;;;;;5.58;67.82;97842.81;10324366;28;20050;-83
2022/11/22 03:57:25;;;;;;;6.38;2.00;;;;;;;5.53;68.24;97844.94;10340379;28;20069;-83
2022/11/22 04:02:27;;;;;;;9.13;2.40;;;;;;;5.45;68.03;97855.03;10322453;28;20054;-83
2022/11/22 04:07:29;;;;;;;6.68;2.45;;;;;;;5.36;68.05;97871.22;10319434;28;20050;-83
2022/11/22 04:12:31;;;;;;;6.38;2.30;;;;;;;5.28;68.34;97855.38;10333650;28;20058;-83
2022/11/22 04:17:42;;;;;;;8.23;2.40;;;;;;;5.19;68.48;97856.03;10318854;28;20053;-83
2022/11/22 04:22:43;;;;;;;6.35;2.35;;;;;;;5.00;68.50;97853.09;10317785;28;20058;-83
2022/11/22 04:27:45;;;;;;;8.70;2.53;;;;;;;4.86;68.55;97848.84;10332496;28;20393;-83
2022/11/22 04:32:47;;;;;;;8.30;3.13;;;;;;;4.69;68.42;97842.28;10323256;28;20058;-83
2022/11/22 04:37:50;;;;;;;9.75;2.50;;;;;;;4.68;68.92;97842.38;10316845;28;20072;-83
2022/11/22 04:48:12;;;;;;;13.20;3.00;;;;;;;4.69;68.45;97844.88;10316812;28;20054;-82
2022/11/22 04:53:15;;;;;;;6.63;2.50;;;;;;;4.54;68.67;97853.69;10317775;28;20054;-83
2022/11/22 04:58:17;;;;;;;6.43;2.88;;;;;;;4.53;68.73;97866.72;10313972;28;20054;-82
2022/11/22 05:03:18;;;;;;;13.82;4.22;;;;;;;4.49;68.79;97871.28;10331536;28;20943;-83
2022/11/22 05:08:21;;;;;;;15.95;6.15;;;;;;;4.44;68.83;97888.03;10315040;28;20509;-83
2022/11/22 05:13:28;;;;;;;14.82;6.85;;;;;;;4.34;68.78;97887.84;10314025;28;20528;-83
2022/11/22 05:18:30;;;;;;;12.68;5.00;;;;;;;4.26;68.90;97895.28;10313328;28;20438;-83
2022/11/22 05:28:52;;;;;;;13.20;4.80;;;;;;;4.35;69.19;97906.78;10316945;28;20042;-83
2022/11/22 05:33:55;;;;;;;13.75;5.28;;;;;;;4.56;68.96;97901.00;10315022;28;20436;-83
2022/11/22 05:38:57;;;;;;;12.40;5.00;;;;;;;4.62;68.99;97918.69;10312527;28;20057;-83
2022/11/22 05:43:59;;;;;;;12.77;5.35;;;;;;;4.79;68.96;97919.31;10330855;28;20062;-83
2022/11/22 05:49:01;;;;;;;11.32;4.82;;;;;;;4.79;68.77;97909.78;10315382;28;20101;-83
2022/11/22 05:54:03;;;;;;;8.20;3.83;;;;;;;4.78;69.02;97926.25;10313570;28;20065;-83
2022/11/22 05:59:04;;;;;;;12.23;4.68;;;;;;;4.83;68.68;97928.53;10315368;28;20145;-83
2022/11/22 06:04:06;;;;;;;11.00;4.07;;;;;;;4.77;68.89;97931.53;10315687;28;20060;-83
2022/11/22 06:09:08;;;;;;;9.48;4.15;;;;;;;4.81;68.64;97951.94;10332035;28;20069;-83
2022/11/22 06:14:09;;;;;;;16.95;5.63;;;;;;;4.66;68.76;97960.72;10323340;28;20069;-83
2022/11/22 06:19:11;;;;;;;8.15;4.20;;;;;;;4.69;68.82;97976.91;10329582;28;20050;-83
2022/11/22 06:24:13;;;;;;;10.48;3.92;;;;;;;4.80;68.40;97989.13;10313561;28;20054;-83
2022/11/22 06:29:15;;;;;;;13.35;5.05;;;;;;;4.90;68.41;97994.53;10314779;28;20423;-83
2022/11/22 06:34:16;;;;;;;9.75;3.97;;;;;;;4.93;68.49;98007.25;10312915;28;20054;-83
2022/11/22 06:39:18;;;;;;;9.93;4.97;;;;;;;5.02;68.40;98004.91;10330544;28;20601;-83
2022/11/22 06:44:20;;;;;;;9.70;5.50;;;;;;;5.13;68.33;98017.09;10314104;28;20062;-83
2022/11/22 06:49:28;;;;;;;12.15;5.63;;;;;;;5.19;67.93;98022.69;10314752;28;20074;-83
2022/11/22 06:54:31;;;;;;;10.02;5.35;;;;;;;5.14;67.95;98019.59;10312148;28;20436;-83
2022/11/22 06:59:33;;;;;;;12.30;5.47;;;;;;;4.93;68.40;98028.81;10327833;28;20066;-83
2022/11/22 07:04:35;;;;;;;11.73;4.47;;;;;;;4.97;68.80;98029.44;10312064;28;20042;-83
2022/11/22 07:09:43;;;;;;;9.85;4.00;;;;;;;4.91;68.85;98033.28;10320961;28;20523;-83
2022/11/22 07:14:45;;;;;;;11.93;4.60;;;;;;;5.05;68.72;98037.50;10320448;28;20054;-83
2022/11/22 07:19:46;;;;;;;13.68;4.30;;;;;;;5.26;68.61;98043.84;10322834;28;20061;-83
2022/11/22 07:24:48;;;;;;;15.48;7.75;;;;;;;5.17;68.49;98040.13;10336965;28;20500;-83
2022/11/22 07:29:50;;;;;;;14.07;8.18;;;;;;;5.29;68.56;98048.81;10321264;28;20055;-82
2022/11/22 07:34:51;;;;;;;13.57;7.30;;;;;;;5.31;68.46;98052.16;10319556;28;20054;-84
2022/11/22 07:39:53;;;;;;;13.05;6.88;;;;;;;5.44;68.18;98061.56;10320046;28;20416;-83
2022/11/22 07:44:55;;;;;;;10.50;5.10;;;;;;;5.44;67.85;98048.59;10318539;28;20057;-83
2022/11/22 07:49:56;;;;;;;12.27;5.35;;;;;;;5.36;68.37;98060.44;10318456;28;20053;-83
2022/11/22 07:54:58;;;;;;;14.05;5.95;;;;;;;5.48;68.16;98070.78;10323886;28;20062;-84
2022/11/22 08:00:00;;;;;;;10.82;4.85;;;;;;;5.62;68.11;98069.84;10318432;28;21003;-83
2022/11/22 08:05:24;;;;;;;15.60;4.53;;;;;;;5.67;67.77;98070.38;10319054;28;20050;-83
2022/11/22 08:10:26;;;;;;;14.43;5.00;;;;;;;5.84;67.54;98070.00;10332927;28;20054;-83
2022/11/22 08:15:27;;;;;;;13.52;6.00;;;;;;;5.96;67.48;98074.31;10318515;28;20427;-83
2022/11/22 08:20:29;;;;;;;18.15;8.00;;;;;;;6.02;67.31;98086.06;10315393;28;20046;-83
2022/11/22 08:25:31;;;;;;;24.00;10.77;;;;;;;6.07;67.47;98084.78;10318737;28;20054;-83
2022/11/22 08:30:32;;;;;;;15.07;7.43;;;;;;;6.16;67.19;98078.13;10318511;28;20423;-83
2022/11/22 08:35:34;;;;;;;33.15;10.95;;;;;;;6.40;66.73;98075.56;10316874;28;20062;-85
2022/11/22 08:40:35;;;;;;;37.13;14.45;;;;;;;6.58;65.96;98087.22;10317714;28;20080;-84
2022/11/22 08:45:41;;;;;;;15.95;5.95;;;;;;;6.63;65.04;98098.09;10320824;28;20116;-84
2022/11/22 08:50:58;;;;;;;10.65;3.67;;;;;;;6.61;64.69;98100.00;10334909;28;20054;-84
2022/11/22 08:56:02;;;;;;;15.27;3.50;;;;;;;6.77;63.89;98106.56;10330509;28;20073;-84
2022/11/22 09:01:16;;;;;;;15.32;3.95;;;;;;;6.84;62.82;98112.09;10313774;28;20053;-84
2022/11/22 09:06:20;;;;;;;11.63;4.40;;;;;;;6.88;62.59;98119.56;10315752;28;20069;-84
2022/11/22 09:11:47;;;;;;;17.05;3.65;;;;;;;6.82;61.93;98119.19;10311554;28;20050;-83
2022/11/22 09:17:05;;;;;;;14.68;2.67;;;;;;;6.79;61.69;98119.44;10315893;28;20054;-83
2022/11/22 09:22:13;;;;;;;9.90;2.47;;;;;;;6.65;61.83;98117.00;10311630;28;20501;-84
2022/11/22 09:27:26;;;;;;;12.52;3.22;;;;;;;6.75;61.20;98112.81;10315689;28;20046;-83
2022/11/22 09:32:28;;;;;;;10.05;2.53;;;;;;;6.78;60.98;98103.00;10312047;28;20739;-84
2022/11/22 09:37:34;;;;;;;12.68;2.38;;;;;;;6.90;60.10;98116.84;10315462;28;20116;-81
2022/11/22 09:42:57;;;;;;;14.10;2.55;;;;;;;7.06;58.65;98094.00;10307604;28;20500;-79
2022/11/22 09:48:37;;;;;;;8.93;2.50;;;;;;;7.33;58.29;98091.09;10313328;28;20054;-80
2022/11/22 09:53:49;;;;;;;10.05;2.35;;;;;;;7.30;57.49;98086.97;10322786;28;20056;-80
2022/11/22 09:59:14;;;;;;;9.77;2.03;;;;;;;7.40;57.62;98085.34;10311121;28;20058;-79
2022/11/22 10:04:39;;;;;;;12.98;2.38;;;;;;;7.47;56.88;98081.31;10303769;28;20050;-80
2022/11/22 10:10:10;;;;;;;8.52;2.25;;;;;;;7.46;56.99;98079.66;10307835;28;20046;-80
2022/11/22 10:15:37;;;;;;;10.23;2.28;;;;;;;7.58;56.55;98083.94;10325436;28;20060;-80
2022/11/22 10:20:46;;;;;;;8.05;2.05;;;;;;;7.89;56.17;98082.38;10311531;28;20518;-81
2022/11/22 10:25:59;;;;;;;8.75;2.10;;;;;;;8.14;56.16;98078.72;10308178;28;20129;-80
2022/11/22 10:31:16;;;;;;;12.15;2.25;;;;;;;8.21;56.30;98074.66;10305843;28;20653;-79
2022/11/22 10:36:45;;;;;;;10.40;2.25;;;;;;;8.29;55.38;98070.50;10312306;28;20485;-80
2022/11/22 10:42:03;;;;;;;9.15;2.03;;;;;;;8.16;56.03;98062.00;10312348;28;20748;-80
2022/11/22 10:47:29;;;;;;;8.05;2.60;;;;;;;8.31;56.12;98058.19;10313636;28;20058;-80
2022/11/22 10:53:03;;;;;;;8.02;2.03;;;;;;;8.33;55.31;98042.44;10317420;28;20133;-80
2022/11/22 10:58:20;;;;;;;12.52;2.10;;;;;;;8.67;54.71;98036.13;10316566;28;20051;-79
2022/11/22 11:03:35;;;;;;;9.98;2.08;;;;;;;8.39;54.76;98028.91;10307472;28;20054;-79
2022/11/22 11:09:03;;;;;;;11.57;2.13;;;;;;;8.27;55.88;98042.91;10317936;28;20042;-80
2022/11/22 11:14:36;;;;;;;11.38;2.33;;;;;;;8.48;55.49;98039.44;10314129;28;20061;-80
2022/11/22 11:19:43;;;;;;;11.40;2.00;;;;;;;8.39;56.00;98047.16;10319567;28;20050;-80
2022/11/22 11:24:47;;;;;;;10.20;2.00;;;;;;;8.21;55.87;98044.25;10313983;28;20054;-80
2022/11/22 11:29:58;;;;;;;9.35;2.00;;;;;;;8.29;56.42;98041.03;10331917;28;20053;-80
2022/11/22 11:35:04;;;;;;;6.68;1.90;;;;;;;8.26;55.87;98036.06;10309380;28;20057;-79
2022/11/22 11:40:33;;;;;;;10.02;2.10;;;;;;;8.53;55.61;98031.22;10332150;28;20145;-79
2022/11/22 11:45:37;;;;;;;6.40;1.80;;;;;;;8.66;55.30;98029.28;10327514;28;20054;-79
2022/11/22 11:50:39;;;;;;;5.32;1.75;;;;;;;8.69;55.21;98029.00;10305328;28;20057;-79
2022/11/22 12:02:24;;;;;;;10.30;2.60;;;;;;;8.58;55.28;98032.53;10310652;28;20038;-78
2022/11/22 12:07:35;;;;;;;8.02;1.98;;;;;;;8.57;53.79;98036.06;10311109;28;20104;-79
2022/11/22 12:12:50;;;;;;;;;;;;;;;8.38;55.50;98032.47;10312182;28;20057;-79
2022/11/22 12:18:11;;;;;;;10.55;2.80;;;;;;;8.69;54.48;98031.63;10307714;28;19926;-79
2022/11/22 12:23:50;;;;;;;5.68;2.00;;;;;;;8.52;55.11;98037.41;10311373;28;20080;-79
2022/11/22 12:28:57;;;;;;;10.93;2.20;;;;;;;8.39;55.08;98028.91;10328059;28;20423;-79
2022/11/22 12:34:23;;;;;;;11.07;1.98;;;;;;;8.47;54.99;98022.13;10309914;28;20084;-79
2022/11/22 12:39:27;;;;;;;9.05;2.10;;;;;;;8.53;55.27;98015.59;10313672;28;20080;-78
2022/11/22 12:44:38;;;;;;;7.63;2.00;;;;;;;8.56;55.88;98023.16;10309848;28;20051;-79
2022/11/22 12:50:05;;;;;;;5.63;1.60;;;;;;;8.55;54.94;98005.88;10315066;28;20174;-79
2022/11/22 12:55:30;;;;;;;7.97;1.70;;;;;;;8.48;55.64;98015.16;10303813;28;20058;-79
2022/11/22 13:00:58;;;;;;;7.00;1.60;;;;;;;8.51;55.57;98017.50;10312296;28;20054;-80
2022/11/22 13:06:04;;;;;;;5.85;1.75;;;;;;;8.46;56.22;98024.88;10310240;28;20054;-79
2022/11/22 13:11:21;;;;;;;4.93;1.40;;;;;;;8.38;56.38;98017.69;10323939;28;20069;-79
2022/11/22 13:16:23;;;;;;;3.72;1.48;;;;;;;8.33;56.58;98022.44;10310891;28;20508;-79
2022/11/22 13:21:49;;;;;;;5.70;1.75;;;;;;;8.39;56.40;98010.69;10309281;28;20082;-79
2022/11/22 13:27:17;;;;;;;6.85;1.85;;;;;;;8.46;56.73;98017.91;10303706;28;20104;-79
2022/11/22 13:32:22;;;;;;;4.50;1.48;;;;;;;8.36;56.73;98010.94;10308257;28;20054;-79
2022/11/22 13:37:35;;;;;;;6.80;1.77;;;;;;;8.31;57.39;98018.28;10310257;28;20082;-78
2022/11/22 13:42:37;;;;;;;3.90;1.92;;;;;;;8.24;57.71;98019.75;10308107;28;20042;-78
2022/11/22 13:47:42;;;;;;;5.32;2.03;;;;;;;8.42;58.77;98006.06;10309711;28;20058;-78
2022/11/22 13:53:22;;;;;;;6.75;1.80;;;;;;;8.21;58.74;98010.41;10308422;28;20046;-78
2022/11/22 13:58:24;;;;;;;7.20;1.70;;;;;;;8.27;58.59;98004.69;10326798;28;20050;-79
2022/11/22 14:03:36;;;;;;;7.38;1.90;;;;;;;8.10;59.07;98004.38;10306644;28;20054;-79
2022/11/22 14:08:42;;;;;;;5.25;1.67;;;;;;;7.97;59.62;97987.13;10317483;28;20042;-79
2022/11/22 14:14:01;;;;;;;6.18;1.90;;;;;;;7.74;60.19;97995.94;10304914;28;20512;-79
2022/11/22 14:19:42;;;;;;;5.65;1.67;;;;;;;7.74;60.03;97995.09;10326784;28;20050;-79
2022/11/22 14:24:53;;;;;;;9.63;1.98;;;;;;;7.81;59.96;97999.69;10316236;28;20061;-79
2022/11/22 14:30:07;;;;;;;4.47;1.50;;;;;;;7.69;60.59;98005.06;10318855;28;20069;-79
2022/11/22 14:35:25;;;;;;;3.72;1.60;;;;;;;7.76;60.58;98003.59;10326149;28;20054;-79
2022/11/22 14:40:37;;;;;;;5.93;1.55;;;;;;;7.73;60.47;98009.88;10321049;28;20081;-79
2022/11/22 14:46:00;;;;;;;7.78;1.88;;;;;;;7.77;60.61;98016.50;10318719;28;20181;-79
2022/11/22 14:51:13;;;;;;;6.07;1.70;;;;;;;7.78;60.51;98022.53;10316869;28;20061;-80
2022/11/22 14:56:23;;;;;;;5.32;1.67;;;;;;;7.74;60.35;98015.91;10331601;28;20639;-79
2022/11/22 15:01:43;;;;;;;5.95;1.80;;;;;;;7.68;60.22;98016.38;10316048;28;20054;-79
2022/11/22 15:07:07;;;;;;;5.63;1.75;;;;;;;7.69;60.38;98008.47;10319017;28;20169;-79
2022/11/22 15:12:47;;;;;;;4.57;1.80;;;;;;;7.66;60.73;98013.09;10324856;28;20058;-79
2022/11/22 15:17:55;;;;;;;10.00;2.50;;;;;;;7.67;60.69;98006.94;10317746;28;20054;-79
2022/11/22 15:23:21;;;;;;;7.57;2.00;;;;;;;7.57;60.73;98012.00;10317950;28;20058;-79
2022/11/22 15:28:48;;;;;;;5.97;1.92;;;;;;;7.48;60.92;98004.09;10318787;28;20077;-79
2022/11/22 15:34:19;;;;;;;5.93;1.58;;;;;;;7.43;61.09;98033.06;10303944;28;20165;-80
2022/11/22 15:39:41;;;;;;;8.23;2.13;;;;;;;7.40;61.15;98038.53;10317442;28;20499;-79
2022/11/22 15:45:03;;;;;;;8.98;2.35;;;;;;;7.36;61.38;98042.31;10312430;28;20085;-80
2022/11/22 15:50:25;;;;;;;8.02;2.30;;;;;;;7.24;61.88;98048.44;10313115;28;20050;-79
2022/11/22 15:56:03;;;;;;;8.05;2.72;;;;;;;7.25;61.54;98064.84;10318025;28;20069;-79
2022/11/22 16:01:25;;;;;;;5.40;1.80;;;;;;;7.31;61.69;98065.22;10317337;28;20061;-79
2022/11/22 16:06:29;;;;;;;4.63;1.67;;;;;;;7.25;61.52;98073.47;10317219;28;20054;-79
2022/11/22 16:11:35;;;;;;;4.75;1.52;;;;;;;7.37;61.63;98074.31;10317672;28;20053;-79
2022/11/22 16:16:36;;;;;;;5.82;1.73;;;;;;;7.43;61.55;98079.88;10316913;28;20397;-79
2022/11/22 16:21:38;;;;;;;3.38;1.63;;;;;;;7.40;61.65;98080.13;10318114;28;20148;-80
2022/11/22 16:26:48;;;;;;;5.03;1.80;;;;;;;7.48;61.02;98077.78;10316806;28;20134;-80
2022/11/22 16:31:49;;;;;;;6.38;2.15;;;;;;;7.52;61.28;98087.00;10325161;28;20061;-80
2022/11/22 16:36:51;;;;;;;4.68;1.75;;;;;;;7.49;61.58;98086.41;10331568;28;20654;-80
2022/11/22 16:41:53;;;;;;;4.90;1.85;;;;;;;7.59;61.40;98090.75;10313863;28;20065;-79
2022/11/22 16:46:54;;;;;;;5.07;1.70;;;;;;;7.51;61.61;98093.13;10317903;28;20515;-79
2022/11/22 16:51:56;;;;;;;4.93;1.90;;;;;;;7.56;61.70;98090.19;10316091;28;20054;-79
2022/11/22 16:56:58;;;;;;;6.35;2.42;;;;;;;7.51;61.67;98092.31;10312342;28;20429;-80
2022/11/22 17:01:59;;;;;;;5.20;2.10;;;;;;;7.51;61.79;98087.94;10315894;28;20065;-79
2022/11/22 17:07:01;;;;;;;5.13;1.77;;;;;;;7.38;61.94;98087.22;10328010;28;20069;-81
2022/11/22 17:12:13;;;;;;;6.07;3.25;;;;;;;7.36;62.07;98094.31;10314319;28;20061;-82
2022/11/22 17:17:14;;;;;;;2.83;1.40;;;;;;;7.40;61.83;98094.91;10312270;28;20534;-81
2022/11/22 17:22:17;;;;;;;2.25;1.40;;;;;;;7.42;61.94;98099.03;10317458;28;20073;-80
2022/11/22 17:27:19;;;;;;;3.25;1.60;;;;;;;7.39;61.90;98107.06;10314451;28;20057;-81
2022/11/22 17:32:20;;;;;;;2.67;1.40;;;;;;;7.42;61.92;98098.22;10313650;28;20054;-81
2022/11/22 17:37:22;;;;;;;4.53;1.90;;;;;;;7.48;61.73;98105.53;10313149;28;20046;-81
2022/11/22 17:42:24;;;;;;;2.83;1.50;;;;;;;7.51;61.86;98119.13;10314026;28;20057;-81
2022/11/22 17:47:26;;;;;;;6.50;3.60;;;;;;;7.49;61.82;98128.03;10327416;28;20050;-81
2022/11/22 17:52:28;;;;;;;3.97;1.70;;;;;;;7.52;61.73;98128.63;10326763;28;20873;-81
2022/11/22 17:57:29;;;;;;;3.65;1.70;;;;;;;7.51;61.84;98137.34;10313296;28;20054;-81
2022/11/22 18:02:32;;;;;;;3.58;1.27;;;;;;;7.60;61.83;98141.03;10312521;28;20054;-81
2022/11/22 18:07:39;;;;;;;3.20;1.50;;;;;;;7.74;61.54;98146.00;10306689;28;20496;-81
2022/11/22 18:12:43;;;;;;;3.15;1.75;;;;;;;7.66;61.91;98146.59;10320807;28;20267;-82
2022/11/22 18:18:06;;;;;;;3.88;2.10;;;;;;;7.59;62.25;98147.19;10306444;28;20054;-88
2022/11/22 18:23:16;;;;;;;5.45;1.90;;;;;;;7.64;62.37;98158.91;10309615;28;20058;-83
2022/11/22 18:28:19;;;;;;;3.58;1.75;;;;;;;7.83;61.69;98166.94;10307733;28;20799;-82
2022/11/22 18:33:22;;;;;;;5.32;2.92;;;;;;;7.89;61.56;98176.91;10299014;28;20057;-82
2022/11/22 18:38:26;;;;;;;3.72;1.58;;;;;;;7.97;61.23;98171.94;10302914;28;20058;-81
2022/11/22 18:43:28;;;;;;;10.57;6.20;;;;;;;7.95;61.45;98175.59;10306637;28;20050;-83
2022/11/22 18:48:31;;;;;;;4.38;2.08;;;;;;;8.01;61.42;98177.75;10321096;28;20863;-81
2022/11/22 18:53:38;;;;;;;2.83;1.50;;;;;;;7.89;61.72;98176.91;10305156;28;20058;-81
2022/11/22 18:58:42;;;;;;;3.92;1.92;;;;;;;7.94;61.53;98179.13;10306361;28;20813;-83
2022/11/22 19:03:57;;;;;;;2.75;1.50;;;;;;;7.89;61.10;98183.88;10315328;28;20063;-81
2022/11/22 19:09:01;;;;;;;5.53;1.60;;;;;;;7.95;60.65;98186.84;10311162;28;20057;-83
2022/11/22 19:14:12;;;;;;;3.10;1.50;;;;;;;7.90;61.30;98188.13;10317395;28;20072;-82
2022/11/22 19:19:18;;;;;;;6.57;1.58;;;;;;;7.98;60.95;98197.00;10331947;28;20042;-85
2022/11/22 19:24:23;;;;;;;4.68;1.80;;;;;;;7.98;61.22;98197.00;10312236;28;20061;-83
2022/11/22 19:29:26;;;;;;;6.32;1.63;;;;;;;8.02;61.22;98192.41;10299113;28;20052;-83
2022/11/22 19:34:28;;;;;;;2.75;1.50;;;;;;;8.12;60.96;98203.00;10308714;28;20056;-83
2022/11/22 19:39:30;;;;;;;6.85;1.70;;;;;;;8.15;60.78;98200.13;10300436;28;20411;-84
2022/11/22 19:44:38;;;;;;;8.18;1.90;;;;;;;8.19;60.72;98207.59;10311707;28;20492;-83
2022/11/22 19:49:40;;;;;;;6.13;1.85;;;;;;;8.16;60.57;98201.81;10305871;28;20050;-83
2022/11/22 19:54:42;;;;;;;5.43;2.25;;;;;;;8.04;60.90;98204.34;10310952;28;20869;-83
2022/11/22 19:59:45;;;;;;;5.00;2.00;;;;;;;8.12;60.94;98203.78;10327082;28;20065;-82
2022/11/22 20:04:47;;;;;;;7.25;3.08;;;;;;;8.13;60.81;98197.66;10312125;28;20094;-83
2022/11/22 20:09:49;;;;;;;13.13;2.45;;;;;;;8.08;61.06;98197.13;10305406;28;20046;-80
2022/11/22 20:15:25;;;;;;;9.13;2.70;;;;;;;7.95;61.02;98206.84;10301469;28;20069;-81
2022/11/22 20:20:29;;;;;;;12.48;3.58;;;;;;;7.92;61.22;98215.72;10296894;28;20046;-81
2022/11/22 20:25:39;;;;;;;7.95;2.20;;;;;;;7.90;61.55;98214.16;10308406;28;20059;-80
2022/11/22 20:30:44;;;;;;;11.65;3.60;;;;;;;8.03;61.22;98220.09;10305758;28;20069;-80
2022/11/22 20:35:46;;;;;;;8.05;2.20;;;;;;;7.97;60.89;98220.56;10309171;28;20050;-80
2022/11/22 20:40:59;;;;;;;9.57;2.17;;;;;;;7.94;60.74;98231.19;10308554;28;20493;-80
2022/11/22 20:46:16;;;;;;;12.48;2.70;;;;;;;7.89;60.94;98234.19;10329137;28;20062;-80
2022/11/22 20:51:23;;;;;;;9.43;2.83;;;;;;;7.91;61.06;98237.50;10303501;28;21103;-81
2022/11/22 20:56:24;;;;;;;9.65;4.30;;;;;;;7.94;61.29;98237.25;10310777;28;20058;-80
2022/11/22 21:01:29;;;;;;;14.25;3.55;;;;;;;7.91;61.25;98250.50;10308991;28;20054;-81
2022/11/22 21:06:34;;;;;;;10.35;3.00;;;;;;;7.81;61.30;98246.91;10310618;28;20081;-80
2022/11/22 21:11:37;;;;;;;13.18;4.00;;;;;;;7.80;61.39;98249.63;10309361;28;20512;-80
2022/11/22 21:16:39;;;;;;;10.13;3.22;;;;;;;7.79;61.50;98259.19;10309185;28;20058;-81
2022/11/22 21:21:41;;;;;;;13.77;3.72;;;;;;;7.85;61.64;98255.34;10309407;28;20069;-80
2022/11/22 21:26:42;;;;;;;7.68;2.40;;;;;;;7.88;61.64;98258.53;10307875;28;20845;-81
2022/11/22 21:31:44;;;;;;;9.63;2.60;;;;;;;7.90;61.44;98261.84;10309230;28;20050;-80
2022/11/22 21:36:46;;;;;;;9.35;2.55;;;;;;;7.94;61.15;98257.22;10306346;28;20050;-79
2022/11/22 21:41:48;;;;;;;9.77;2.28;;;;;;;8.00;60.98;98261.97;10324829;28;20054;-81
2022/11/22 21:46:50;;;;;;;8.82;2.92;;;;;;;8.07;61.06;98254.53;10308033;28;20050;-81
2022/11/22 21:51:52;;;;;;;9.50;3.05;;;;;;;7.97;61.25;98257.84;10308620;28;20066;-81
2022/11/22 21:56:53;;;;;;;7.78;2.30;;;;;;;8.05;61.20;98259.88;10305644;28;20484;-81
2022/11/22 22:02:02;;;;;;;11.00;3.50;;;;;;;8.05;60.89;98265.06;10310449;28;20165;-80
2022/11/22 22:07:04;;;;;;;8.15;2.92;;;;;;;8.09;60.84;98260.44;10309366;28;20401;-80
2022/11/22 22:12:12;;;;;;;11.52;4.03;;;;;;;8.07;60.88;98264.94;10308353;28;20158;-80
2022/11/22 22:17:14;;;;;;;12.60;3.10;;;;;;;8.03;60.79;98261.75;10307734;28;20054;-80
2022/11/22 22:22:15;;;;;;;9.77;2.72;;;;;;;7.90;61.18;98261.84;10310420;28;20064;-80
2022/11/22 22:27:17;;;;;;;13.68;2.47;;;;;;;7.91;60.86;98260.91;10300187;28;20505;-80
2022/11/22 22:32:19;;;;;;;9.32;2.75;;;;;;;7.82;61.09;98261.59;10312072;28;20641;-81
2022/11/22 22:37:20;;;;;;;9.77;2.63;;;;;;;7.76;61.45;98261.22;10324795;28;20062;-81
2022/11/22 22:42:22;;;;;;;11.57;2.92;;;;;;;7.82;61.31;98263.34;10319640;28;20123;-80
2022/11/22 22:47:24;;;;;;;10.50;3.55;;;;;;;7.77;61.43;98274.09;10319068;28;20058;-80
2022/11/22 22:52:25;;;;;;;11.23;3.30;;;;;;;7.68;61.68;98277.41;10315744;28;20069;-80
2022/11/22 22:57:27;;;;;;;10.30;3.17;;;;;;;7.72;61.60;98278.84;10317228;28;20077;-80
2022/11/22 23:02:29;;;;;;;9.95;2.90;;;;;;;7.69;61.73;98276.44;10334449;28;20061;-81
2022/11/22 23:07:31;;;;;;;18.98;7.88;;;;;;;7.71;61.75;98277.16;10318383;28;21003;-80
2022/11/22 23:12:33;;;;;;;20.40;8.90;;;;;;;7.83;61.58;98284.06;10312990;28;20145;-80
2022/11/22 23:17:34;;;;;;;11.55;3.42;;;;;;;7.83;61.40;98286.66;10302102;28;20065;-81
2022/11/22 23:22:36;;;;;;;11.25;3.90;;;;;;;7.75;61.81;98288.19;10302403;28;20046;-80
2022/11/22 23:27:38;;;;;;;10.57;4.05;;;;;;;7.85;61.52;98294.38;10305649;28;20073;-81
2022/11/22 23:32:39;;;;;;;10.50;3.35;;;;;;;7.95;61.18;98292.75;10305681;28;20054;-80
2022/11/22 23:37:41;;;;;;;11.50;3.03;;;;;;;7.92;61.44;98292.97;10320385;28;20496;-80
2022/11/22 23:42:43;;;;;;;8.57;2.17;;;;;;;7.84;61.37;98301.34;10313982;28;20133;-80
2022/11/22 23:47:49;;;;;;;8.02;2.33;;;;;;;7.93;61.26;98303.28;10314142;28;20427;-80
2022/11/22 23:52:57;;;;;;;7.85;2.70;;;;;;;7.97;61.23;98306.47;10314290;28;20054;-80
2022/11/22 23:57:59;;;;;;;14.40;3.22;;;;;;;8.05;60.97;98306.72;10323322;28;20069;-80
